sensor_id;sensor_type;location;lat;lon;timestamp;temperature;humidity
38938;DHT22;24727;51.974;20.868;2023-08-06T00:02:09;18.50;59.70
38938;DHT22;24727;51.974;20.868;2023-08-06T00:04:35;18.50;61.90
38938;DHT22;24727;51.974;20.868;2023-08-06T00:07:01;18.50;62.00
38938;DHT22;24727;51.974;20.868;2023-08-06T00:09:27;18.50;63.00
38938;DHT22;24727;51.974;20.868;2023-08-06T00:11:55;18.50;63.70
38938;DHT22;24727;51.974;20.868;2023-08-06T00:14:21;18.40;64.30
38938;DHT22;24727;51.974;20.868;2023-08-06T00:16:47;18.40;64.80
38938;DHT22;24727;51.974;20.868;2023-08-06T00:19:13;18.40;65.10
38938;DHT22;24727;51.974;20.868;2023-08-06T00:21:39;18.30;65.70
38938;DHT22;24727;51.974;20.868;2023-08-06T00:24:05;18.40;66.10
38938;DHT22;24727;51.974;20.868;2023-08-06T00:26:30;18.40;66.10
38938;DHT22;24727;51.974;20.868;2023-08-06T00:28:56;18.40;66.20
38938;DHT22;24727;51.974;20.868;2023-08-06T00:31:22;18.40;66.20
38938;DHT22;24727;51.974;20.868;2023-08-06T00:33:48;18.40;66.20
38938;DHT22;24727;51.974;20.868;2023-08-06T00:36:15;18.30;66.20
38938;DHT22;24727;51.974;20.868;2023-08-06T00:38:41;18.40;66.30
38938;DHT22;24727;51.974;20.868;2023-08-06T00:41:07;18.40;66.20
38938;DHT22;24727;51.974;20.868;2023-08-06T00:43:33;18.40;66.20
38938;DHT22;24727;51.974;20.868;2023-08-06T00:45:59;18.30;66.10
38938;DHT22;24727;51.974;20.868;2023-08-06T00:48:25;18.30;65.30
38938;DHT22;24727;51.974;20.868;2023-08-06T00:50:59;18.20;57.90
38938;DHT22;24727;51.974;20.868;2023-08-06T00:53:26;18.40;50.70
38938;DHT22;24727;51.974;20.868;2023-08-06T00:55:53;18.30;39.90
38938;DHT22;24727;51.974;20.868;2023-08-06T00:58:19;18.50;33.00
38938;DHT22;24727;51.974;20.868;2023-08-06T01:00:46;18.50;1.00
38938;DHT22;24727;51.974;20.868;2023-08-06T01:03:11;18.70;16.10
38938;DHT22;24727;51.974;20.868;2023-08-06T01:05:37;18.60;1.00
38938;DHT22;24727;51.974;20.868;2023-08-06T01:08:34;18.80;1.00
38938;DHT22;24727;51.974;20.868;2023-08-06T01:13:46;18.80;1.00
38938;DHT22;24727;51.974;20.868;2023-08-06T01:16:17;18.80;1.00
38938;DHT22;24727;51.974;20.868;2023-08-06T01:18:43;18.90;1.00
38938;DHT22;24727;51.974;20.868;2023-08-06T01:21:13;18.80;1.00
38938;DHT22;24727;51.974;20.868;2023-08-06T01:23:39;18.90;1.00
38938;DHT22;24727;51.974;20.868;2023-08-06T01:31:18;19.00;1.00
38938;DHT22;24727;51.974;20.868;2023-08-06T01:33:47;18.90;1.00
38938;DHT22;24727;51.974;20.868;2023-08-06T01:36:16;18.90;1.00
38938;DHT22;24727;51.974;20.868;2023-08-06T01:38:43;19.00;1.00
38938;DHT22;24727;51.974;20.868;2023-08-06T01:41:09;19.10;1.00
38938;DHT22;24727;51.974;20.868;2023-08-06T01:43:35;19.00;1.00
38938;DHT22;24727;51.974;20.868;2023-08-06T01:46:01;19.10;1.00
38938;DHT22;24727;51.974;20.868;2023-08-06T01:48:27;18.90;1.00
38938;DHT22;24727;51.974;20.868;2023-08-06T01:50:54;18.90;1.00
38938;DHT22;24727;51.974;20.868;2023-08-06T01:53:22;18.90;1.00
38938;DHT22;24727;51.974;20.868;2023-08-06T01:55:50;19.00;1.00
38938;DHT22;24727;51.974;20.868;2023-08-06T01:58:15;18.90;1.00
38938;DHT22;24727;51.974;20.868;2023-08-06T02:00:48;19.00;1.00
38938;DHT22;24727;51.974;20.868;2023-08-06T02:03:13;19.10;1.00
38938;DHT22;24727;51.974;20.868;2023-08-06T02:05:40;19.10;1.00
38938;DHT22;24727;51.974;20.868;2023-08-06T02:08:06;19.00;1.00
38938;DHT22;24727;51.974;20.868;2023-08-06T02:10:33;19.00;1.00
38938;DHT22;24727;51.974;20.868;2023-08-06T02:13:00;19.10;1.00
38938;DHT22;24727;51.974;20.868;2023-08-06T02:15:27;19.10;1.00
38938;DHT22;24727;51.974;20.868;2023-08-06T02:17:53;19.10;1.00
38938;DHT22;24727;51.974;20.868;2023-08-06T02:20:19;19.00;12.20
38938;DHT22;24727;51.974;20.868;2023-08-06T02:22:45;18.90;1.00
38938;DHT22;24727;51.974;20.868;2023-08-06T02:25:11;18.80;1.00
38938;DHT22;24727;51.974;20.868;2023-08-06T02:27:37;18.90;1.00
38938;DHT22;24727;51.974;20.868;2023-08-06T02:30:05;19.00;1.00
38938;DHT22;24727;51.974;20.868;2023-08-06T02:32:32;19.10;1.00
38938;DHT22;24727;51.974;20.868;2023-08-06T02:35:01;19.20;1.00
38938;DHT22;24727;51.974;20.868;2023-08-06T02:37:27;19.30;1.00
38938;DHT22;24727;51.974;20.868;2023-08-06T02:39:53;19.20;6.10
38938;DHT22;24727;51.974;20.868;2023-08-06T02:42:19;19.10;1.00
38938;DHT22;24727;51.974;20.868;2023-08-06T02:44:45;19.00;1.00
38938;DHT22;24727;51.974;20.868;2023-08-06T02:47:11;19.10;1.00
38938;DHT22;24727;51.974;20.868;2023-08-06T02:49:37;19.30;1.00
38938;DHT22;24727;51.974;20.868;2023-08-06T02:52:03;19.20;1.00
38938;DHT22;24727;51.974;20.868;2023-08-06T02:54:29;19.10;1.00
38938;DHT22;24727;51.974;20.868;2023-08-06T02:56:55;19.30;1.00
38938;DHT22;24727;51.974;20.868;2023-08-06T02:59:21;19.30;1.00
38938;DHT22;24727;51.974;20.868;2023-08-06T03:01:47;19.20;1.00
38938;DHT22;24727;51.974;20.868;2023-08-06T03:04:14;19.30;1.00
38938;DHT22;24727;51.974;20.868;2023-08-06T03:06:40;19.30;1.00
38938;DHT22;24727;51.974;20.868;2023-08-06T03:09:05;19.30;1.00
38938;DHT22;24727;51.974;20.868;2023-08-06T03:11:33;19.30;1.00
38938;DHT22;24727;51.974;20.868;2023-08-06T03:14:00;19.20;1.00
38938;DHT22;24727;51.974;20.868;2023-08-06T03:16:26;19.20;1.00
38938;DHT22;24727;51.974;20.868;2023-08-06T03:18:53;19.30;1.00
38938;DHT22;24727;51.974;20.868;2023-08-06T03:21:19;19.30;1.00
38938;DHT22;24727;51.974;20.868;2023-08-06T03:23:47;19.30;1.00
38938;DHT22;24727;51.974;20.868;2023-08-06T03:26:14;19.30;1.00
38938;DHT22;24727;51.974;20.868;2023-08-06T03:28:41;19.30;1.00
38938;DHT22;24727;51.974;20.868;2023-08-06T03:31:07;19.30;1.00
38938;DHT22;24727;51.974;20.868;2023-08-06T03:33:34;19.20;1.00
38938;DHT22;24727;51.974;20.868;2023-08-06T03:36:00;19.20;1.00
38938;DHT22;24727;51.974;20.868;2023-08-06T03:38:27;19.40;1.00
38938;DHT22;24727;51.974;20.868;2023-08-06T03:40:53;19.40;1.00
38938;DHT22;24727;51.974;20.868;2023-08-06T03:43:19;19.40;1.00
38938;DHT22;24727;51.974;20.868;2023-08-06T03:45:46;19.30;1.00
38938;DHT22;24727;51.974;20.868;2023-08-06T03:48:12;19.30;1.00
38938;DHT22;24727;51.974;20.868;2023-08-06T03:50:40;19.30;1.00
38938;DHT22;24727;51.974;20.868;2023-08-06T03:53:06;19.30;1.00
38938;DHT22;24727;51.974;20.868;2023-08-06T03:55:32;19.30;1.00
38938;DHT22;24727;51.974;20.868;2023-08-06T03:57:58;19.30;1.00
38938;DHT22;24727;51.974;20.868;2023-08-06T04:00:24;19.30;1.00
38938;DHT22;24727;51.974;20.868;2023-08-06T04:02:50;19.30;1.00
38938;DHT22;24727;51.974;20.868;2023-08-06T04:05:17;19.20;1.00
38938;DHT22;24727;51.974;20.868;2023-08-06T04:07:43;19.20;1.00
38938;DHT22;24727;51.974;20.868;2023-08-06T04:10:09;19.20;1.00
38938;DHT22;24727;51.974;20.868;2023-08-06T04:12:35;19.10;1.00
38938;DHT22;24727;51.974;20.868;2023-08-06T04:15:04;19.10;1.00
38938;DHT22;24727;51.974;20.868;2023-08-06T04:17:32;19.20;1.00
38938;DHT22;24727;51.974;20.868;2023-08-06T04:19:58;19.30;1.00
38938;DHT22;24727;51.974;20.868;2023-08-06T04:22:25;19.30;1.00
38938;DHT22;24727;51.974;20.868;2023-08-06T04:24:51;19.20;1.00
38938;DHT22;24727;51.974;20.868;2023-08-06T04:27:19;19.30;1.00
38938;DHT22;24727;51.974;20.868;2023-08-06T04:29:45;19.30;1.00
38938;DHT22;24727;51.974;20.868;2023-08-06T04:32:12;19.40;1.00
38938;DHT22;24727;51.974;20.868;2023-08-06T04:34:38;19.40;1.00
38938;DHT22;24727;51.974;20.868;2023-08-06T04:37:05;19.40;1.00
38938;DHT22;24727;51.974;20.868;2023-08-06T04:39:30;19.30;1.00
38938;DHT22;24727;51.974;20.868;2023-08-06T04:41:57;19.40;1.00
38938;DHT22;24727;51.974;20.868;2023-08-06T04:44:26;19.60;1.00
38938;DHT22;24727;51.974;20.868;2023-08-06T04:46:53;19.60;1.00
38938;DHT22;24727;51.974;20.868;2023-08-06T04:49:20;19.60;1.00
38938;DHT22;24727;51.974;20.868;2023-08-06T04:51:46;19.60;1.00
38938;DHT22;24727;51.974;20.868;2023-08-06T04:54:12;19.70;1.00
38938;DHT22;24727;51.974;20.868;2023-08-06T04:56:46;19.70;1.00
38938;DHT22;24727;51.974;20.868;2023-08-06T04:59:13;19.70;1.40
38938;DHT22;24727;51.974;20.868;2023-08-06T05:01:39;19.60;1.00
38938;DHT22;24727;51.974;20.868;2023-08-06T05:04:07;19.70;1.00
38938;DHT22;24727;51.974;20.868;2023-08-06T05:06:33;19.70;1.50
38938;DHT22;24727;51.974;20.868;2023-08-06T05:08:59;19.70;5.20
38938;DHT22;24727;51.974;20.868;2023-08-06T05:11:25;19.70;7.00
38938;DHT22;24727;51.974;20.868;2023-08-06T05:13:50;19.70;7.10
38938;DHT22;24727;51.974;20.868;2023-08-06T05:16:16;19.80;9.00
38938;DHT22;24727;51.974;20.868;2023-08-06T05:18:48;19.80;1.00
38938;DHT22;24727;51.974;20.868;2023-08-06T05:21:14;19.80;1.00
38938;DHT22;24727;51.974;20.868;2023-08-06T05:23:42;20.00;1.00
38938;DHT22;24727;51.974;20.868;2023-08-06T05:26:08;20.00;1.10
38938;DHT22;24727;51.974;20.868;2023-08-06T05:28:34;20.00;4.90
38938;DHT22;24727;51.974;20.868;2023-08-06T05:31:10;20.10;7.00
38938;DHT22;24727;51.974;20.868;2023-08-06T05:33:36;20.20;1.00
38938;DHT22;24727;51.974;20.868;2023-08-06T05:36:02;20.30;1.00
38938;DHT22;24727;51.974;20.868;2023-08-06T05:38:29;20.30;1.00
38938;DHT22;24727;51.974;20.868;2023-08-06T05:40:56;20.40;1.00
38938;DHT22;24727;51.974;20.868;2023-08-06T05:43:22;20.40;1.00
38938;DHT22;24727;51.974;20.868;2023-08-06T05:45:51;20.40;1.00
38938;DHT22;24727;51.974;20.868;2023-08-06T05:48:17;20.60;5.70
38938;DHT22;24727;51.974;20.868;2023-08-06T05:50:44;20.70;3.80
38938;DHT22;24727;51.974;20.868;2023-08-06T05:53:09;20.90;2.10
38938;DHT22;24727;51.974;20.868;2023-08-06T05:55:35;21.10;1.00
38938;DHT22;24727;51.974;20.868;2023-08-06T05:58:03;21.40;1.00
38938;DHT22;24727;51.974;20.868;2023-08-06T06:00:31;21.50;1.00
38938;DHT22;24727;51.974;20.868;2023-08-06T06:02:57;21.70;1.00
38938;DHT22;24727;51.974;20.868;2023-08-06T06:05:23;21.60;1.00
38938;DHT22;24727;51.974;20.868;2023-08-06T06:07:50;21.60;1.00
38938;DHT22;24727;51.974;20.868;2023-08-06T06:10:16;21.50;1.00
38938;DHT22;24727;51.974;20.868;2023-08-06T06:12:43;21.40;1.00
38938;DHT22;24727;51.974;20.868;2023-08-06T06:15:09;21.40;1.00
38938;DHT22;24727;51.974;20.868;2023-08-06T06:17:36;21.50;1.00
38938;DHT22;24727;51.974;20.868;2023-08-06T06:20:02;21.70;1.00
38938;DHT22;24727;51.974;20.868;2023-08-06T06:22:30;21.90;1.00
38938;DHT22;24727;51.974;20.868;2023-08-06T06:24:56;22.10;1.00
38938;DHT22;24727;51.974;20.868;2023-08-06T06:27:22;22.40;1.00
38938;DHT22;24727;51.974;20.868;2023-08-06T06:29:48;22.70;1.00
38938;DHT22;24727;51.974;20.868;2023-08-06T06:32:14;22.80;1.00
38938;DHT22;24727;51.974;20.868;2023-08-06T06:34:40;23.00;1.00
38938;DHT22;24727;51.974;20.868;2023-08-06T06:37:06;23.20;1.00
38938;DHT22;24727;51.974;20.868;2023-08-06T06:39:31;23.60;1.00
38938;DHT22;24727;51.974;20.868;2023-08-06T06:41:57;23.80;1.00
38938;DHT22;24727;51.974;20.868;2023-08-06T06:44:24;24.00;1.00
38938;DHT22;24727;51.974;20.868;2023-08-06T06:46:50;24.20;1.00
38938;DHT22;24727;51.974;20.868;2023-08-06T06:49:16;24.60;1.00
38938;DHT22;24727;51.974;20.868;2023-08-06T06:51:42;24.90;1.00
38938;DHT22;24727;51.974;20.868;2023-08-06T06:54:08;24.90;1.00
38938;DHT22;24727;51.974;20.868;2023-08-06T06:56:35;24.70;1.00
38938;DHT22;24727;51.974;20.868;2023-08-06T06:59:01;24.80;1.00
38938;DHT22;24727;51.974;20.868;2023-08-06T07:01:29;24.90;1.00
38938;DHT22;24727;51.974;20.868;2023-08-06T07:03:55;25.00;1.00
38938;DHT22;24727;51.974;20.868;2023-08-06T07:06:21;25.00;1.00
38938;DHT22;24727;51.974;20.868;2023-08-06T07:08:48;25.10;1.00
38938;DHT22;24727;51.974;20.868;2023-08-06T07:11:15;25.00;1.00
38938;DHT22;24727;51.974;20.868;2023-08-06T07:13:40;25.10;1.00
38938;DHT22;24727;51.974;20.868;2023-08-06T07:16:06;25.20;1.00
38938;DHT22;24727;51.974;20.868;2023-08-06T07:18:33;25.50;1.00
38938;DHT22;24727;51.974;20.868;2023-08-06T07:20:59;25.80;1.00
38938;DHT22;24727;51.974;20.868;2023-08-06T07:23:26;25.60;1.00
38938;DHT22;24727;51.974;20.868;2023-08-06T07:25:53;25.70;1.00
38938;DHT22;24727;51.974;20.868;2023-08-06T07:28:19;25.70;1.00
38938;DHT22;24727;51.974;20.868;2023-08-06T07:30:46;25.70;1.00
38938;DHT22;24727;51.974;20.868;2023-08-06T07:33:12;25.50;1.00
38938;DHT22;24727;51.974;20.868;2023-08-06T07:35:38;25.60;1.00
38938;DHT22;24727;51.974;20.868;2023-08-06T07:38:05;26.00;1.00
38938;DHT22;24727;51.974;20.868;2023-08-06T07:40:31;25.90;1.00
38938;DHT22;24727;51.974;20.868;2023-08-06T07:42:57;26.00;1.00
38938;DHT22;24727;51.974;20.868;2023-08-06T07:45:23;26.30;1.00
38938;DHT22;24727;51.974;20.868;2023-08-06T07:47:49;26.80;1.00
38938;DHT22;24727;51.974;20.868;2023-08-06T07:50:16;26.70;1.00
38938;DHT22;24727;51.974;20.868;2023-08-06T07:52:42;26.70;1.00
38938;DHT22;24727;51.974;20.868;2023-08-06T07:55:09;26.50;1.00
38938;DHT22;24727;51.974;20.868;2023-08-06T07:57:35;26.60;1.00
38938;DHT22;24727;51.974;20.868;2023-08-06T08:00:01;26.10;1.00
38938;DHT22;24727;51.974;20.868;2023-08-06T08:02:28;26.40;1.00
38938;DHT22;24727;51.974;20.868;2023-08-06T08:04:57;26.30;1.00
38938;DHT22;24727;51.974;20.868;2023-08-06T08:07:23;26.10;1.00
38938;DHT22;24727;51.974;20.868;2023-08-06T08:09:49;26.30;1.00
38938;DHT22;24727;51.974;20.868;2023-08-06T08:12:15;26.40;1.00
38938;DHT22;24727;51.974;20.868;2023-08-06T08:14:48;26.30;1.00
38938;DHT22;24727;51.974;20.868;2023-08-06T08:17:15;26.20;1.00
38938;DHT22;24727;51.974;20.868;2023-08-06T08:19:41;26.60;1.00
38938;DHT22;24727;51.974;20.868;2023-08-06T08:22:09;26.50;1.00
38938;DHT22;24727;51.974;20.868;2023-08-06T08:24:37;26.10;1.00
38938;DHT22;24727;51.974;20.868;2023-08-06T08:27:03;26.00;1.00
38938;DHT22;24727;51.974;20.868;2023-08-06T08:29:29;25.90;1.00
38938;DHT22;24727;51.974;20.868;2023-08-06T08:31:56;26.40;1.00
38938;DHT22;24727;51.974;20.868;2023-08-06T08:34:23;26.70;1.00
38938;DHT22;24727;51.974;20.868;2023-08-06T08:36:51;26.90;1.00
38938;DHT22;24727;51.974;20.868;2023-08-06T08:39:18;27.30;1.00
38938;DHT22;24727;51.974;20.868;2023-08-06T08:41:44;27.30;1.00
38938;DHT22;24727;51.974;20.868;2023-08-06T08:44:10;27.10;1.00
38938;DHT22;24727;51.974;20.868;2023-08-06T08:46:38;27.20;1.00
38938;DHT22;24727;51.974;20.868;2023-08-06T08:49:05;27.50;1.00
38938;DHT22;24727;51.974;20.868;2023-08-06T08:51:33;27.60;1.00
38938;DHT22;24727;51.974;20.868;2023-08-06T08:54:03;28.10;1.00
38938;DHT22;24727;51.974;20.868;2023-08-06T08:56:30;27.90;1.00
38938;DHT22;24727;51.974;20.868;2023-08-06T08:58:57;28.30;1.00
38938;DHT22;24727;51.974;20.868;2023-08-06T09:01:24;28.30;1.00
38938;DHT22;24727;51.974;20.868;2023-08-06T09:03:51;28.20;1.00
38938;DHT22;24727;51.974;20.868;2023-08-06T09:06:20;28.20;1.00
38938;DHT22;24727;51.974;20.868;2023-08-06T09:09:13;28.20;1.00
38938;DHT22;24727;51.974;20.868;2023-08-06T09:11:45;28.70;1.00
38938;DHT22;24727;51.974;20.868;2023-08-06T09:14:12;29.30;1.00
38938;DHT22;24727;51.974;20.868;2023-08-06T09:16:38;29.20;1.00
38938;DHT22;24727;51.974;20.868;2023-08-06T09:19:09;29.60;1.00
38938;DHT22;24727;51.974;20.868;2023-08-06T09:21:41;29.60;1.00
38938;DHT22;24727;51.974;20.868;2023-08-06T09:24:11;28.90;1.00
38938;DHT22;24727;51.974;20.868;2023-08-06T09:26:41;28.70;1.00
38938;DHT22;24727;51.974;20.868;2023-08-06T09:29:08;28.90;1.00
38938;DHT22;24727;51.974;20.868;2023-08-06T09:31:43;29.30;1.00
38938;DHT22;24727;51.974;20.868;2023-08-06T09:34:18;29.40;1.00
38938;DHT22;24727;51.974;20.868;2023-08-06T09:36:51;29.50;1.00
38938;DHT22;24727;51.974;20.868;2023-08-06T09:39:19;29.90;1.00
38938;DHT22;24727;51.974;20.868;2023-08-06T09:41:46;30.40;1.00
38938;DHT22;24727;51.974;20.868;2023-08-06T09:44:18;30.40;1.00
38938;DHT22;24727;51.974;20.868;2023-08-06T09:46:48;29.90;1.00
38938;DHT22;24727;51.974;20.868;2023-08-06T09:49:16;29.50;1.00
38938;DHT22;24727;51.974;20.868;2023-08-06T09:51:42;29.40;1.00
38938;DHT22;24727;51.974;20.868;2023-08-06T09:54:09;29.90;1.00
38938;DHT22;24727;51.974;20.868;2023-08-06T09:56:38;30.30;1.00
38938;DHT22;24727;51.974;20.868;2023-08-06T09:59:07;30.60;1.00
38938;DHT22;24727;51.974;20.868;2023-08-06T10:01:34;30.50;1.00
38938;DHT22;24727;51.974;20.868;2023-08-06T10:04:05;30.30;1.00
38938;DHT22;24727;51.974;20.868;2023-08-06T10:06:37;30.50;1.00
38938;DHT22;24727;51.974;20.868;2023-08-06T10:09:04;30.40;1.00
38938;DHT22;24727;51.974;20.868;2023-08-06T10:11:30;30.40;1.00
38938;DHT22;24727;51.974;20.868;2023-08-06T10:14:21;30.30;1.00
38938;DHT22;24727;51.974;20.868;2023-08-06T10:16:49;30.10;1.00
38938;DHT22;24727;51.974;20.868;2023-08-06T10:19:16;30.10;1.00
38938;DHT22;24727;51.974;20.868;2023-08-06T10:22:13;30.10;1.00
38938;DHT22;24727;51.974;20.868;2023-08-06T10:24:47;29.80;1.00
38938;DHT22;24727;51.974;20.868;2023-08-06T10:27:13;29.40;1.00
38938;DHT22;24727;51.974;20.868;2023-08-06T10:29:39;29.70;1.00
38938;DHT22;24727;51.974;20.868;2023-08-06T10:32:06;29.70;1.00
38938;DHT22;24727;51.974;20.868;2023-08-06T10:34:58;29.40;1.00
38938;DHT22;24727;51.974;20.868;2023-08-06T10:37:34;29.20;1.00
38938;DHT22;24727;51.974;20.868;2023-08-06T10:40:01;29.10;1.00
38938;DHT22;24727;51.974;20.868;2023-08-06T10:42:29;29.00;1.00
38938;DHT22;24727;51.974;20.868;2023-08-06T10:45:12;28.80;1.00
38938;DHT22;24727;51.974;20.868;2023-08-06T10:47:45;28.90;1.00
38938;DHT22;24727;51.974;20.868;2023-08-06T10:50:15;28.90;1.00
38938;DHT22;24727;51.974;20.868;2023-08-06T10:52:45;28.70;1.00
38938;DHT22;24727;51.974;20.868;2023-08-06T10:55:13;28.70;1.00
38938;DHT22;24727;51.974;20.868;2023-08-06T10:57:40;28.90;1.00
38938;DHT22;24727;51.974;20.868;2023-08-06T11:00:07;28.90;1.00
38938;DHT22;24727;51.974;20.868;2023-08-06T11:02:36;29.30;1.00
38938;DHT22;24727;51.974;20.868;2023-08-06T11:05:10;29.80;1.00
38938;DHT22;24727;51.974;20.868;2023-08-06T11:07:42;30.10;1.00
38938;DHT22;24727;51.974;20.868;2023-08-06T11:10:10;30.20;1.00
38938;DHT22;24727;51.974;20.868;2023-08-06T11:12:37;30.10;1.00
38938;DHT22;24727;51.974;20.868;2023-08-06T11:15:03;30.10;1.00
38938;DHT22;24727;51.974;20.868;2023-08-06T11:17:32;30.70;1.00
38938;DHT22;24727;51.974;20.868;2023-08-06T11:20:03;30.80;1.00
38938;DHT22;24727;51.974;20.868;2023-08-06T11:22:30;30.40;1.00
38938;DHT22;24727;51.974;20.868;2023-08-06T11:24:56;30.10;1.00
38938;DHT22;24727;51.974;20.868;2023-08-06T11:27:23;30.00;1.00
38938;DHT22;24727;51.974;20.868;2023-08-06T11:29:50;30.50;1.00
38938;DHT22;24727;51.974;20.868;2023-08-06T11:32:16;30.70;1.00
38938;DHT22;24727;51.974;20.868;2023-08-06T11:34:43;31.00;1.00
38938;DHT22;24727;51.974;20.868;2023-08-06T11:37:10;30.60;1.00
38938;DHT22;24727;51.974;20.868;2023-08-06T11:39:38;30.40;1.00
38938;DHT22;24727;51.974;20.868;2023-08-06T11:42:07;30.50;1.00
38938;DHT22;24727;51.974;20.868;2023-08-06T11:44:35;30.50;1.00
38938;DHT22;24727;51.974;20.868;2023-08-06T11:47:03;30.30;1.00
38938;DHT22;24727;51.974;20.868;2023-08-06T11:49:44;30.40;1.00
38938;DHT22;24727;51.974;20.868;2023-08-06T11:52:20;30.10;1.00
38938;DHT22;24727;51.974;20.868;2023-08-06T11:54:47;30.00;1.00
38938;DHT22;24727;51.974;20.868;2023-08-06T11:57:15;30.30;1.00
38938;DHT22;24727;51.974;20.868;2023-08-06T11:59:42;30.10;1.00
38938;DHT22;24727;51.974;20.868;2023-08-06T12:02:09;30.00;1.00
38938;DHT22;24727;51.974;20.868;2023-08-06T12:07:42;29.90;1.00
38938;DHT22;24727;51.974;20.868;2023-08-06T12:10:09;29.70;1.00
38938;DHT22;24727;51.974;20.868;2023-08-06T12:12:36;29.90;1.00
38938;DHT22;24727;51.974;20.868;2023-08-06T12:15:10;30.00;1.00
38938;DHT22;24727;51.974;20.868;2023-08-06T12:17:37;30.00;1.00
38938;DHT22;24727;51.974;20.868;2023-08-06T12:20:04;29.70;1.00
38938;DHT22;24727;51.974;20.868;2023-08-06T12:22:30;29.70;1.00
38938;DHT22;24727;51.974;20.868;2023-08-06T12:25:06;29.70;1.00
38938;DHT22;24727;51.974;20.868;2023-08-06T12:27:34;29.80;1.00
38938;DHT22;24727;51.974;20.868;2023-08-06T12:30:01;29.60;1.00
38938;DHT22;24727;51.974;20.868;2023-08-06T12:32:29;29.70;1.00
38938;DHT22;24727;51.974;20.868;2023-08-06T12:34:56;29.10;1.00
38938;DHT22;24727;51.974;20.868;2023-08-06T12:37:25;28.70;1.00
38938;DHT22;24727;51.974;20.868;2023-08-06T12:39:51;28.20;1.00
38938;DHT22;24727;51.974;20.868;2023-08-06T12:42:18;27.50;1.00
38938;DHT22;24727;51.974;20.868;2023-08-06T12:44:44;26.80;1.00
38938;DHT22;24727;51.974;20.868;2023-08-06T12:47:12;26.30;1.00
38938;DHT22;24727;51.974;20.868;2023-08-06T12:49:39;26.30;1.00
38938;DHT22;24727;51.974;20.868;2023-08-06T12:52:06;26.30;1.00
38938;DHT22;24727;51.974;20.868;2023-08-06T12:54:34;26.30;1.00
38938;DHT22;24727;51.974;20.868;2023-08-06T12:57:03;26.20;1.00
38938;DHT22;24727;51.974;20.868;2023-08-06T12:59:30;26.40;1.00
38938;DHT22;24727;51.974;20.868;2023-08-06T13:01:57;26.60;1.00
38938;DHT22;24727;51.974;20.868;2023-08-06T13:04:23;26.40;1.00
38938;DHT22;24727;51.974;20.868;2023-08-06T13:06:50;26.40;1.00
38938;DHT22;24727;51.974;20.868;2023-08-06T13:09:17;26.60;1.00
38938;DHT22;24727;51.974;20.868;2023-08-06T13:11:43;26.50;1.00
38938;DHT22;24727;51.974;20.868;2023-08-06T13:14:13;26.80;1.00
38938;DHT22;24727;51.974;20.868;2023-08-06T13:16:42;26.80;1.00
38938;DHT22;24727;51.974;20.868;2023-08-06T13:19:09;26.70;1.00
38938;DHT22;24727;51.974;20.868;2023-08-06T13:21:59;27.00;1.00
38938;DHT22;24727;51.974;20.868;2023-08-06T13:24:27;26.90;1.00
38938;DHT22;24727;51.974;20.868;2023-08-06T13:26:54;26.80;1.00
38938;DHT22;24727;51.974;20.868;2023-08-06T13:29:21;27.00;1.00
38938;DHT22;24727;51.974;20.868;2023-08-06T13:31:47;27.10;1.00
38938;DHT22;24727;51.974;20.868;2023-08-06T13:34:15;27.30;1.00
38938;DHT22;24727;51.974;20.868;2023-08-06T13:36:44;27.10;1.00
38938;DHT22;24727;51.974;20.868;2023-08-06T13:39:12;27.30;1.00
38938;DHT22;24727;51.974;20.868;2023-08-06T13:41:42;27.50;1.00
38938;DHT22;24727;51.974;20.868;2023-08-06T13:44:09;27.50;1.00
38938;DHT22;24727;51.974;20.868;2023-08-06T13:46:37;27.70;1.00
38938;DHT22;24727;51.974;20.868;2023-08-06T13:49:03;27.50;1.00
38938;DHT22;24727;51.974;20.868;2023-08-06T13:51:31;27.40;1.00
38938;DHT22;24727;51.974;20.868;2023-08-06T13:53:57;27.20;1.00
38938;DHT22;24727;51.974;20.868;2023-08-06T13:56:25;27.20;1.00
38938;DHT22;24727;51.974;20.868;2023-08-06T13:58:51;27.20;1.00
38938;DHT22;24727;51.974;20.868;2023-08-06T14:01:19;27.40;1.00
38938;DHT22;24727;51.974;20.868;2023-08-06T14:03:45;27.10;1.00
38938;DHT22;24727;51.974;20.868;2023-08-06T14:06:13;27.10;1.00
38938;DHT22;24727;51.974;20.868;2023-08-06T14:08:39;26.70;1.00
38938;DHT22;24727;51.974;20.868;2023-08-06T14:11:06;26.60;1.00
38938;DHT22;24727;51.974;20.868;2023-08-06T14:13:32;26.40;1.00
38938;DHT22;24727;51.974;20.868;2023-08-06T14:15:59;25.80;1.00
38938;DHT22;24727;51.974;20.868;2023-08-06T14:18:25;25.30;1.00
38938;DHT22;24727;51.974;20.868;2023-08-06T14:20:52;25.00;1.00
38938;DHT22;24727;51.974;20.868;2023-08-06T14:23:18;24.80;1.00
38938;DHT22;24727;51.974;20.868;2023-08-06T14:25:45;24.60;1.00
38938;DHT22;24727;51.974;20.868;2023-08-06T14:28:12;24.60;1.00
38938;DHT22;24727;51.974;20.868;2023-08-06T14:30:38;24.70;1.00
38938;DHT22;24727;51.974;20.868;2023-08-06T14:33:07;24.90;1.00
38938;DHT22;24727;51.974;20.868;2023-08-06T14:35:33;24.90;1.00
38938;DHT22;24727;51.974;20.868;2023-08-06T14:38:00;25.00;1.00
38938;DHT22;24727;51.974;20.868;2023-08-06T14:40:31;24.90;1.00
38938;DHT22;24727;51.974;20.868;2023-08-06T14:43:01;25.10;1.00
38938;DHT22;24727;51.974;20.868;2023-08-06T14:45:28;24.90;1.00
38938;DHT22;24727;51.974;20.868;2023-08-06T14:47:55;24.80;1.00
38938;DHT22;24727;51.974;20.868;2023-08-06T14:50:22;24.90;1.00
38938;DHT22;24727;51.974;20.868;2023-08-06T14:52:49;24.80;1.00
38938;DHT22;24727;51.974;20.868;2023-08-06T14:55:26;24.90;1.00
38938;DHT22;24727;51.974;20.868;2023-08-06T14:57:53;24.80;1.00
38938;DHT22;24727;51.974;20.868;2023-08-06T15:00:20;24.80;1.00
38938;DHT22;24727;51.974;20.868;2023-08-06T15:02:47;24.50;1.00
38938;DHT22;24727;51.974;20.868;2023-08-06T15:05:13;24.30;1.00
38938;DHT22;24727;51.974;20.868;2023-08-06T15:07:42;24.30;1.00
38938;DHT22;24727;51.974;20.868;2023-08-06T15:10:11;24.40;1.00
38938;DHT22;24727;51.974;20.868;2023-08-06T15:12:37;24.30;1.00
38938;DHT22;24727;51.974;20.868;2023-08-06T15:15:06;24.20;1.00
38938;DHT22;24727;51.974;20.868;2023-08-06T15:17:37;24.10;1.00
38938;DHT22;24727;51.974;20.868;2023-08-06T15:20:07;24.00;1.00
38938;DHT22;24727;51.974;20.868;2023-08-06T15:22:34;24.00;1.00
38938;DHT22;24727;51.974;20.868;2023-08-06T15:25:04;23.90;1.00
38938;DHT22;24727;51.974;20.868;2023-08-06T15:27:33;24.00;1.00
38938;DHT22;24727;51.974;20.868;2023-08-06T15:30:04;24.20;1.00
38938;DHT22;24727;51.974;20.868;2023-08-06T15:32:31;24.30;1.00
38938;DHT22;24727;51.974;20.868;2023-08-06T15:35:06;24.40;1.00
38938;DHT22;24727;51.974;20.868;2023-08-06T15:37:34;24.50;1.00
38938;DHT22;24727;51.974;20.868;2023-08-06T15:40:02;24.40;1.00
38938;DHT22;24727;51.974;20.868;2023-08-06T15:42:29;24.60;1.00
38938;DHT22;24727;51.974;20.868;2023-08-06T15:44:57;24.80;1.00